Hauptseite
METAR-TAF:

METAR-TAF

Flughäfen :

Flughafen Huesca-Pirineos

Huesca, Spanien

Breite: 42-04-32N, Länge: 0-18-58W, Höhe: 539 m

Beobachtung

Neuester Wetterbericht von vor 16 Minuten, um 04:30 UTC
Wind 2 kt aus unterschiedlichen Richtungen
Temperatur 2°C
Luftfeuchtigkeit 47%
Luftdruck 1025 hPa
Sichtweite 10 km oder mehr

METAR: LEHC 170430Z AUTO VRB02KT 9999 NCD 02/M08 Q1025

Zeit: 05:46 (04:46 UTC)

Prognose

Neuester Wetterbericht von vor 2 Stunden und 46 Minuten, um 02:00 UTC
Gültige Prognose vom 17 um 03 UTC bis 18 um 03 UTC
Wind 9 kt aus Ost
Sichtweite 10 km oder mehr
Leicht bewölkt in der Höhe von 3000 ft

TAF: LEHC 170200Z 1703/1803 09009KT 9999 FEW030 TX17/1714Z TN03/1707Z

Wetterbeobachtungen und Prognosen von mehr als 4000 Flughäfen (METAR und TAF Bericht).

Die verfügbaren Stationen werden durch gelbe und rote Markierungen auf der Karte dargestellt.

Führen Sie die Maus auf sie, um den Namen der Station zu sehen.

Darauf klicken, um die Beobachtung von Wetterbeobachtungen und Prognosen zu sehen.

Um die Karte zu ändern : klicken Sie auf den grünen Tasten mit einem schwarzen Kreuz Zum Vergrößern, auf den grünen Button mit einem Gedankenstrich zu verkleinern, oder auf die grünen Pfeile für benachbarte Karten.


METAR-TAF: